sensor_id;sensor_type;location;lat;lon;timestamp;P1;durP1;ratioP1;P2;durP2;ratioP2
12222;SDS011;6174;49.058;8.524;2022-08-04T00:01:08;2.38;;;2.17;;
12222;SDS011;6174;49.058;8.524;2022-08-04T00:03:49;2.83;;;2.22;;
12222;SDS011;6174;49.058;8.524;2022-08-04T00:06:21;2.33;;;2.20;;
12222;SDS011;6174;49.058;8.524;2022-08-04T00:08:55;2.72;;;2.20;;
12222;SDS011;6174;49.058;8.524;2022-08-04T00:11:29;2.35;;;2.03;;
12222;SDS011;6174;49.058;8.524;2022-08-04T00:14:00;2.53;;;2.08;;
12222;SDS011;6174;49.058;8.524;2022-08-04T00:16:31;2.88;;;1.90;;
12222;SDS011;6174;49.058;8.524;2022-08-04T00:19:03;2.78;;;2.08;;
12222;SDS011;6174;49.058;8.524;2022-08-04T00:21:35;2.40;;;2.20;;
12222;SDS011;6174;49.058;8.524;2022-08-04T00:24:07;3.58;;;2.22;;
12222;SDS011;6174;49.058;8.524;2022-08-04T00:26:36;3.80;;;2.00;;
12222;SDS011;6174;49.058;8.524;2022-08-04T00:29:04;4.75;;;2.03;;
12222;SDS011;6174;49.058;8.524;2022-08-04T00:31:31;2.47;;;2.28;;
12222;SDS011;6174;49.058;8.524;2022-08-04T00:33:58;2.20;;;2.10;;
12222;SDS011;6174;49.058;8.524;2022-08-04T00:36:27;2.40;;;2.20;;
12222;SDS011;6174;49.058;8.524;2022-08-04T00:38:55;2.60;;;2.40;;
12222;SDS011;6174;49.058;8.524;2022-08-04T00:41:26;2.58;;;2.20;;
12222;SDS011;6174;49.058;8.524;2022-08-04T00:44:06;2.35;;;2.20;;
12222;SDS011;6174;49.058;8.524;2022-08-04T00:46:45;2.67;;;2.15;;
12222;SDS011;6174;49.058;8.524;2022-08-04T00:49:42;2.65;;;2.30;;
12222;SDS011;6174;49.058;8.524;2022-08-04T00:52:24;2.30;;;2.00;;
12222;SDS011;6174;49.058;8.524;2022-08-04T00:55:10;2.92;;;2.05;;
12222;SDS011;6174;49.058;8.524;2022-08-04T00:57:54;3.20;;;2.22;;
12222;SDS011;6174;49.058;8.524;2022-08-04T01:00:32;2.17;;;1.98;;
12222;SDS011;6174;49.058;8.524;2022-08-04T01:03:08;3.80;;;2.35;;
12222;SDS011;6174;49.058;8.524;2022-08-04T01:05:42;2.95;;;2.30;;
12222;SDS011;6174;49.058;8.524;2022-08-04T01:08:27;2.42;;;2.13;;
12222;SDS011;6174;49.058;8.524;2022-08-04T01:11:09;3.22;;;2.30;;
12222;SDS011;6174;49.058;8.524;2022-08-04T01:13:55;2.17;;;1.95;;
12222;SDS011;6174;49.058;8.524;2022-08-04T01:16:37;2.40;;;2.20;;
12222;SDS011;6174;49.058;8.524;2022-08-04T01:19:27;2.50;;;2.25;;
12222;SDS011;6174;49.058;8.524;2022-08-04T01:22:23;6.03;;;2.17;;
12222;SDS011;6174;49.058;8.524;2022-08-04T01:25:28;2.50;;;2.30;;
12222;SDS011;6174;49.058;8.524;2022-08-04T01:28:22;3.17;;;2.40;;
12222;SDS011;6174;49.058;8.524;2022-08-04T01:30:57;3.58;;;1.90;;
12222;SDS011;6174;49.058;8.524;2022-08-04T01:33:28;2.38;;;2.17;;
12222;SDS011;6174;49.058;8.524;2022-08-04T01:36:00;3.78;;;2.25;;
12222;SDS011;6174;49.058;8.524;2022-08-04T01:38:32;2.65;;;2.35;;
12222;SDS011;6174;49.058;8.524;2022-08-04T01:41:02;2.20;;;2.00;;
12222;SDS011;6174;49.058;8.524;2022-08-04T01:43:31;4.35;;;2.08;;
12222;SDS011;6174;49.058;8.524;2022-08-04T01:46:02;2.38;;;1.92;;
12222;SDS011;6174;49.058;8.524;2022-08-04T01:48:30;2.40;;;2.20;;
12222;SDS011;6174;49.058;8.524;2022-08-04T01:51:02;2.70;;;2.22;;
12222;SDS011;6174;49.058;8.524;2022-08-04T01:53:30;3.28;;;2.00;;
12222;SDS011;6174;49.058;8.524;2022-08-04T01:55:59;3.67;;;2.13;;
12222;SDS011;6174;49.058;8.524;2022-08-04T01:58:27;3.00;;;2.35;;
12222;SDS011;6174;49.058;8.524;2022-08-04T02:00:56;3.35;;;2.17;;
12222;SDS011;6174;49.058;8.524;2022-08-04T02:03:27;2.40;;;2.20;;
12222;SDS011;6174;49.058;8.524;2022-08-04T02:05:58;5.03;;;2.40;;
12222;SDS011;6174;49.058;8.524;2022-08-04T02:08:39;2.75;;;2.50;;
12222;SDS011;6174;49.058;8.524;2022-08-04T02:11:13;2.28;;;2.10;;
12222;SDS011;6174;49.058;8.524;2022-08-04T02:13:46;2.40;;;2.20;;
12222;SDS011;6174;49.058;8.524;2022-08-04T02:16:21;2.47;;;2.05;;
12222;SDS011;6174;49.058;8.524;2022-08-04T02:18:59;3.03;;;2.38;;
12222;SDS011;6174;49.058;8.524;2022-08-04T02:21:33;2.38;;;2.20;;
12222;SDS011;6174;49.058;8.524;2022-08-04T02:24:02;4.50;;;2.50;;
12222;SDS011;6174;49.058;8.524;2022-08-04T02:26:32;2.67;;;2.40;;
12222;SDS011;6174;49.058;8.524;2022-08-04T02:29:03;3.95;;;2.30;;
12222;SDS011;6174;49.058;8.524;2022-08-04T02:31:37;3.15;;;2.22;;
12222;SDS011;6174;49.058;8.524;2022-08-04T02:34:15;2.63;;;2.25;;
12222;SDS011;6174;49.058;8.524;2022-08-04T02:36:48;3.97;;;2.35;;
12222;SDS011;6174;49.058;8.524;2022-08-04T02:39:18;3.17;;;2.20;;
12222;SDS011;6174;49.058;8.524;2022-08-04T02:41:47;2.40;;;2.20;;
12222;SDS011;6174;49.058;8.524;2022-08-04T02:44:17;2.90;;;2.17;;
12222;SDS011;6174;49.058;8.524;2022-08-04T02:46:47;2.45;;;2.20;;
12222;SDS011;6174;49.058;8.524;2022-08-04T02:49:17;2.55;;;2.17;;
12222;SDS011;6174;49.058;8.524;2022-08-04T02:51:46;2.53;;;2.13;;
12222;SDS011;6174;49.058;8.524;2022-08-04T02:54:16;3.15;;;2.45;;
12222;SDS011;6174;49.058;8.524;2022-08-04T02:56:44;2.28;;;2.05;;
12222;SDS011;6174;49.058;8.524;2022-08-04T02:59:13;3.72;;;2.70;;
12222;SDS011;6174;49.058;8.524;2022-08-04T03:01:41;2.60;;;2.40;;
12222;SDS011;6174;49.058;8.524;2022-08-04T03:04:28;2.65;;;2.40;;
12222;SDS011;6174;49.058;8.524;2022-08-04T03:10:25;2.55;;;2.35;;
12222;SDS011;6174;49.058;8.524;2022-08-04T03:13:17;3.37;;;2.20;;
12222;SDS011;6174;49.058;8.524;2022-08-04T03:19:25;2.30;;;2.10;;
12222;SDS011;6174;49.058;8.524;2022-08-04T03:25:11;2.70;;;2.33;;
12222;SDS011;6174;49.058;8.524;2022-08-04T03:28:06;2.92;;;2.20;;
12222;SDS011;6174;49.058;8.524;2022-08-04T03:31:09;2.47;;;2.25;;
12222;SDS011;6174;49.058;8.524;2022-08-04T03:34:02;2.50;;;2.30;;
12222;SDS011;6174;49.058;8.524;2022-08-04T03:36:58;2.30;;;2.10;;
12222;SDS011;6174;49.058;8.524;2022-08-04T03:39:53;2.87;;;2.37;;
12222;SDS011;6174;49.058;8.524;2022-08-04T03:43:02;2.57;;;2.37;;
12222;SDS011;6174;49.058;8.524;2022-08-04T03:49:30;3.80;;;2.30;;
12222;SDS011;6174;49.058;8.524;2022-08-04T03:52:29;2.77;;;2.20;;
12222;SDS011;6174;49.058;8.524;2022-08-04T04:01:59;3.17;;;2.43;;
12222;SDS011;6174;49.058;8.524;2022-08-04T04:04:44;2.30;;;2.20;;
12222;SDS011;6174;49.058;8.524;2022-08-04T04:13:38;2.83;;;2.50;;
12222;SDS011;6174;49.058;8.524;2022-08-04T04:16:21;2.37;;;2.13;;
12222;SDS011;6174;49.058;8.524;2022-08-04T04:19:21;2.80;;;2.57;;
12222;SDS011;6174;49.058;8.524;2022-08-04T04:21:57;2.47;;;2.20;;
12222;SDS011;6174;49.058;8.524;2022-08-04T04:24:39;2.87;;;2.43;;
12222;SDS011;6174;49.058;8.524;2022-08-04T04:27:24;2.50;;;2.30;;
12222;SDS011;6174;49.058;8.524;2022-08-04T04:30:04;4.37;;;2.57;;
12222;SDS011;6174;49.058;8.524;2022-08-04T04:32:53;4.30;;;2.47;;
12222;SDS011;6174;49.058;8.524;2022-08-04T04:35:47;2.67;;;2.37;;
12222;SDS011;6174;49.058;8.524;2022-08-04T04:38:29;2.95;;;2.38;;
12222;SDS011;6174;49.058;8.524;2022-08-04T04:41:13;3.93;;;3.57;;
12222;SDS011;6174;49.058;8.524;2022-08-04T04:44:04;6.07;;;3.30;;
12222;SDS011;6174;49.058;8.524;2022-08-04T04:46:44;3.43;;;3.00;;
12222;SDS011;6174;49.058;8.524;2022-08-04T04:49:18;2.72;;;2.22;;
12222;SDS011;6174;49.058;8.524;2022-08-04T04:51:52;2.80;;;2.60;;
12222;SDS011;6174;49.058;8.524;2022-08-04T04:54:27;4.07;;;2.57;;
12222;SDS011;6174;49.058;8.524;2022-08-04T04:57:04;6.25;;;2.75;;
12222;SDS011;6174;49.058;8.524;2022-08-04T04:59:38;3.00;;;2.70;;
12222;SDS011;6174;49.058;8.524;2022-08-04T05:05:25;3.03;;;2.37;;
12222;SDS011;6174;49.058;8.524;2022-08-04T05:08:13;4.03;;;2.20;;
12222;SDS011;6174;49.058;8.524;2022-08-04T05:10:55;5.43;;;2.57;;
12222;SDS011;6174;49.058;8.524;2022-08-04T05:13:40;4.13;;;2.47;;
12222;SDS011;6174;49.058;8.524;2022-08-04T05:16:15;3.33;;;2.20;;
12222;SDS011;6174;49.058;8.524;2022-08-04T05:18:47;3.60;;;2.30;;
12222;SDS011;6174;49.058;8.524;2022-08-04T05:21:21;4.38;;;2.35;;
12222;SDS011;6174;49.058;8.524;2022-08-04T05:23:59;2.63;;;2.40;;
12222;SDS011;6174;49.058;8.524;2022-08-04T05:26:31;2.53;;;2.15;;
12222;SDS011;6174;49.058;8.524;2022-08-04T05:29:04;7.18;;;2.75;;
12222;SDS011;6174;49.058;8.524;2022-08-04T05:31:37;11.50;;;3.05;;
12222;SDS011;6174;49.058;8.524;2022-08-04T05:34:06;7.38;;;2.83;;
12222;SDS011;6174;49.058;8.524;2022-08-04T05:36:35;8.07;;;3.03;;
12222;SDS011;6174;49.058;8.524;2022-08-04T05:39:05;5.80;;;3.00;;
12222;SDS011;6174;49.058;8.524;2022-08-04T05:41:37;5.40;;;2.97;;
12222;SDS011;6174;49.058;8.524;2022-08-04T05:44:06;8.23;;;3.28;;
12222;SDS011;6174;49.058;8.524;2022-08-04T05:46:34;9.95;;;3.33;;
12222;SDS011;6174;49.058;8.524;2022-08-04T05:49:03;9.88;;;3.30;;
12222;SDS011;6174;49.058;8.524;2022-08-04T05:51:30;10.07;;;2.88;;
12222;SDS011;6174;49.058;8.524;2022-08-04T05:53:59;5.07;;;2.58;;
12222;SDS011;6174;49.058;8.524;2022-08-04T05:56:27;4.13;;;2.53;;
12222;SDS011;6174;49.058;8.524;2022-08-04T05:58:57;3.40;;;2.60;;
12222;SDS011;6174;49.058;8.524;2022-08-04T06:01:24;3.42;;;2.60;;
12222;SDS011;6174;49.058;8.524;2022-08-04T06:03:54;3.92;;;2.50;;
12222;SDS011;6174;49.058;8.524;2022-08-04T06:06:22;6.75;;;2.85;;
12222;SDS011;6174;49.058;8.524;2022-08-04T06:08:49;8.32;;;3.22;;
12222;SDS011;6174;49.058;8.524;2022-08-04T06:11:16;9.77;;;3.20;;
12222;SDS011;6174;49.058;8.524;2022-08-04T06:13:47;11.45;;;3.38;;
12222;SDS011;6174;49.058;8.524;2022-08-04T06:16:19;10.52;;;3.22;;
12222;SDS011;6174;49.058;8.524;2022-08-04T06:18:49;4.60;;;2.85;;
12222;SDS011;6174;49.058;8.524;2022-08-04T06:21:19;3.92;;;2.50;;
12222;SDS011;6174;49.058;8.524;2022-08-04T06:23:48;3.63;;;2.30;;
12222;SDS011;6174;49.058;8.524;2022-08-04T06:26:17;4.10;;;2.53;;
12222;SDS011;6174;49.058;8.524;2022-08-04T06:28:45;4.68;;;2.38;;
12222;SDS011;6174;49.058;8.524;2022-08-04T06:31:14;2.40;;;2.20;;
12222;SDS011;6174;49.058;8.524;2022-08-04T06:33:56;5.40;;;2.30;;
12222;SDS011;6174;49.058;8.524;2022-08-04T06:36:27;3.05;;;2.38;;
12222;SDS011;6174;49.058;8.524;2022-08-04T06:38:56;5.05;;;2.80;;
12222;SDS011;6174;49.058;8.524;2022-08-04T06:41:24;3.53;;;2.53;;
12222;SDS011;6174;49.058;8.524;2022-08-04T06:43:51;3.20;;;2.90;;
12222;SDS011;6174;49.058;8.524;2022-08-04T06:46:19;3.20;;;2.90;;
12222;SDS011;6174;49.058;8.524;2022-08-04T06:48:47;3.10;;;2.90;;
12222;SDS011;6174;49.058;8.524;2022-08-04T06:51:15;3.20;;;2.90;;
12222;SDS011;6174;49.058;8.524;2022-08-04T06:53:46;3.38;;;3.08;;
12222;SDS011;6174;49.058;8.524;2022-08-04T06:56:13;4.63;;;2.95;;
12222;SDS011;6174;49.058;8.524;2022-08-04T06:58:44;3.33;;;3.03;;
12222;SDS011;6174;49.058;8.524;2022-08-04T07:01:12;3.33;;;3.00;;
12222;SDS011;6174;49.058;8.524;2022-08-04T07:03:41;3.35;;;2.97;;
12222;SDS011;6174;49.058;8.524;2022-08-04T07:06:08;4.35;;;3.03;;
12222;SDS011;6174;49.058;8.524;2022-08-04T07:08:36;3.72;;;3.00;;
12222;SDS011;6174;49.058;8.524;2022-08-04T07:11:04;3.30;;;3.00;;
12222;SDS011;6174;49.058;8.524;2022-08-04T07:13:31;3.40;;;3.10;;
12222;SDS011;6174;49.058;8.524;2022-08-04T07:15:58;3.17;;;2.92;;
12222;SDS011;6174;49.058;8.524;2022-08-04T07:18:26;3.70;;;3.20;;
12222;SDS011;6174;49.058;8.524;2022-08-04T07:20:55;4.45;;;3.15;;
12222;SDS011;6174;49.058;8.524;2022-08-04T07:23:23;5.03;;;3.20;;
12222;SDS011;6174;49.058;8.524;2022-08-04T07:25:51;4.60;;;3.47;;
12222;SDS011;6174;49.058;8.524;2022-08-04T07:28:21;3.30;;;3.00;;
12222;SDS011;6174;49.058;8.524;2022-08-04T07:30:49;3.75;;;3.22;;
12222;SDS011;6174;49.058;8.524;2022-08-04T07:33:16;3.33;;;3.10;;
12222;SDS011;6174;49.058;8.524;2022-08-04T07:35:43;3.70;;;3.38;;
12222;SDS011;6174;49.058;8.524;2022-08-04T07:38:11;4.20;;;3.20;;
12222;SDS011;6174;49.058;8.524;2022-08-04T07:40:38;3.92;;;3.13;;
12222;SDS011;6174;49.058;8.524;2022-08-04T07:43:06;4.45;;;3.53;;
12222;SDS011;6174;49.058;8.524;2022-08-04T07:45:36;6.03;;;3.10;;
12222;SDS011;6174;49.058;8.524;2022-08-04T07:48:03;3.97;;;3.20;;
12222;SDS011;6174;49.058;8.524;2022-08-04T07:50:31;3.47;;;3.10;;
12222;SDS011;6174;49.058;8.524;2022-08-04T07:52:59;4.47;;;3.40;;
12222;SDS011;6174;49.058;8.524;2022-08-04T07:55:26;3.72;;;3.38;;
12222;SDS011;6174;49.058;8.524;2022-08-04T07:57:54;3.65;;;3.35;;
12222;SDS011;6174;49.058;8.524;2022-08-04T08:00:21;3.70;;;3.40;;
12222;SDS011;6174;49.058;8.524;2022-08-04T08:02:49;4.00;;;3.50;;
12222;SDS011;6174;49.058;8.524;2022-08-04T08:05:19;5.28;;;3.40;;
12222;SDS011;6174;49.058;8.524;2022-08-04T08:07:46;4.50;;;2.95;;
12222;SDS011;6174;49.058;8.524;2022-08-04T08:10:13;6.55;;;3.42;;
12222;SDS011;6174;49.058;8.524;2022-08-04T08:12:43;3.97;;;3.35;;
12222;SDS011;6174;49.058;8.524;2022-08-04T08:15:10;4.53;;;3.30;;
12222;SDS011;6174;49.058;8.524;2022-08-04T08:17:37;4.43;;;3.30;;
12222;SDS011;6174;49.058;8.524;2022-08-04T08:20:07;6.45;;;3.20;;
12222;SDS011;6174;49.058;8.524;2022-08-04T08:22:34;3.42;;;3.03;;
12222;SDS011;6174;49.058;8.524;2022-08-04T08:25:02;3.75;;;3.40;;
12222;SDS011;6174;49.058;8.524;2022-08-04T08:27:31;3.75;;;3.30;;
12222;SDS011;6174;49.058;8.524;2022-08-04T08:29:58;4.70;;;3.33;;
12222;SDS011;6174;49.058;8.524;2022-08-04T08:32:24;5.05;;;3.40;;
12222;SDS011;6174;49.058;8.524;2022-08-04T08:34:52;3.80;;;3.50;;
12222;SDS011;6174;49.058;8.524;2022-08-04T08:37:22;3.20;;;2.92;;
12222;SDS011;6174;49.058;8.524;2022-08-04T08:39:56;3.53;;;3.22;;
12222;SDS011;6174;49.058;8.524;2022-08-04T08:42:43;3.53;;;3.13;;
12222;SDS011;6174;49.058;8.524;2022-08-04T08:45:39;4.60;;;3.50;;
12222;SDS011;6174;49.058;8.524;2022-08-04T08:51:22;3.42;;;3.03;;
12222;SDS011;6174;49.058;8.524;2022-08-04T08:57:03;3.80;;;3.35;;
12222;SDS011;6174;49.058;8.524;2022-08-04T08:59:51;3.90;;;3.30;;
12222;SDS011;6174;49.058;8.524;2022-08-04T09:02:33;3.53;;;3.20;;
12222;SDS011;6174;49.058;8.524;2022-08-04T09:08:26;5.50;;;3.50;;
12222;SDS011;6174;49.058;8.524;2022-08-04T09:11:05;4.88;;;3.63;;
12222;SDS011;6174;49.058;8.524;2022-08-04T09:13:39;3.53;;;3.10;;
12222;SDS011;6174;49.058;8.524;2022-08-04T09:16:13;4.05;;;3.63;;
12222;SDS011;6174;49.058;8.524;2022-08-04T09:18:44;3.42;;;2.90;;
12222;SDS011;6174;49.058;8.524;2022-08-04T09:21:22;3.92;;;3.10;;
12222;SDS011;6174;49.058;8.524;2022-08-04T09:23:56;3.60;;;3.30;;
12222;SDS011;6174;49.058;8.524;2022-08-04T09:26:31;4.65;;;3.10;;
12222;SDS011;6174;49.058;8.524;2022-08-04T09:29:06;2.97;;;2.78;;
12222;SDS011;6174;49.058;8.524;2022-08-04T09:31:43;3.47;;;3.05;;
12222;SDS011;6174;49.058;8.524;2022-08-04T09:34:19;3.97;;;3.10;;
12222;SDS011;6174;49.058;8.524;2022-08-04T09:36:55;4.82;;;2.88;;
12222;SDS011;6174;49.058;8.524;2022-08-04T09:39:32;4.00;;;3.10;;
12222;SDS011;6174;49.058;8.524;2022-08-04T09:42:08;3.17;;;2.97;;
12222;SDS011;6174;49.058;8.524;2022-08-04T09:44:42;4.38;;;2.70;;
12222;SDS011;6174;49.058;8.524;2022-08-04T09:47:19;3.22;;;2.95;;
12222;SDS011;6174;49.058;8.524;2022-08-04T09:49:52;3.15;;;2.95;;
12222;SDS011;6174;49.058;8.524;2022-08-04T09:52:27;2.97;;;2.78;;
12222;SDS011;6174;49.058;8.524;2022-08-04T09:55:08;3.13;;;2.83;;
12222;SDS011;6174;49.058;8.524;2022-08-04T09:57:52;2.80;;;2.60;;
12222;SDS011;6174;49.058;8.524;2022-08-04T10:00:25;2.80;;;2.60;;
12222;SDS011;6174;49.058;8.524;2022-08-04T10:02:58;2.92;;;2.72;;
12222;SDS011;6174;49.058;8.524;2022-08-04T10:05:32;3.28;;;2.83;;
12222;SDS011;6174;49.058;8.524;2022-08-04T10:08:14;2.80;;;2.60;;
12222;SDS011;6174;49.058;8.524;2022-08-04T10:10:50;2.78;;;2.50;;
12222;SDS011;6174;49.058;8.524;2022-08-04T10:13:35;3.28;;;2.78;;
12222;SDS011;6174;49.058;8.524;2022-08-04T10:19:14;3.03;;;2.70;;
12222;SDS011;6174;49.058;8.524;2022-08-04T10:21:52;2.88;;;2.63;;
12222;SDS011;6174;49.058;8.524;2022-08-04T10:24:29;3.17;;;2.78;;
12222;SDS011;6174;49.058;8.524;2022-08-04T10:27:08;2.90;;;2.53;;
12222;SDS011;6174;49.058;8.524;2022-08-04T10:29:43;3.95;;;2.55;;
12222;SDS011;6174;49.058;8.524;2022-08-04T10:32:13;3.10;;;2.80;;
12222;SDS011;6174;49.058;8.524;2022-08-04T10:34:46;5.95;;;2.60;;
12222;SDS011;6174;49.058;8.524;2022-08-04T10:37:26;3.67;;;2.58;;
12222;SDS011;6174;49.058;8.524;2022-08-04T10:39:58;2.83;;;2.42;;
12222;SDS011;6174;49.058;8.524;2022-08-04T10:42:49;2.50;;;2.30;;
12222;SDS011;6174;49.058;8.524;2022-08-04T10:45:25;4.45;;;2.60;;
12222;SDS011;6174;49.058;8.524;2022-08-04T10:47:59;6.03;;;2.67;;
12222;SDS011;6174;49.058;8.524;2022-08-04T10:50:31;3.03;;;2.35;;
12222;SDS011;6174;49.058;8.524;2022-08-04T10:53:02;2.95;;;2.67;;
12222;SDS011;6174;49.058;8.524;2022-08-04T10:55:35;3.25;;;2.40;;
12222;SDS011;6174;49.058;8.524;2022-08-04T10:58:10;3.03;;;2.58;;
12222;SDS011;6174;49.058;8.524;2022-08-04T11:00:45;3.10;;;2.70;;
12222;SDS011;6174;49.058;8.524;2022-08-04T11:03:16;4.30;;;2.72;;
12222;SDS011;6174;49.058;8.524;2022-08-04T11:05:48;3.85;;;2.50;;
12222;SDS011;6174;49.058;8.524;2022-08-04T11:08:19;2.75;;;2.55;;
12222;SDS011;6174;49.058;8.524;2022-08-04T11:10:50;4.15;;;2.40;;
12222;SDS011;6174;49.058;8.524;2022-08-04T11:13:22;2.60;;;2.40;;
12222;SDS011;6174;49.058;8.524;2022-08-04T11:15:52;3.83;;;2.38;;
12222;SDS011;6174;49.058;8.524;2022-08-04T11:18:22;4.28;;;2.63;;
12222;SDS011;6174;49.058;8.524;2022-08-04T11:20:58;2.30;;;2.20;;
12222;SDS011;6174;49.058;8.524;2022-08-04T11:23:32;2.50;;;2.30;;
12222;SDS011;6174;49.058;8.524;2022-08-04T11:26:03;3.10;;;2.13;;
12222;SDS011;6174;49.058;8.524;2022-08-04T11:28:36;2.53;;;2.33;;
12222;SDS011;6174;49.058;8.524;2022-08-04T11:31:11;2.67;;;2.30;;
12222;SDS011;6174;49.058;8.524;2022-08-04T11:33:45;4.03;;;2.00;;
12222;SDS011;6174;49.058;8.524;2022-08-04T11:36:19;3.47;;;2.50;;
12222;SDS011;6174;49.058;8.524;2022-08-04T11:38:55;3.42;;;2.22;;
12222;SDS011;6174;49.058;8.524;2022-08-04T11:41:33;2.60;;;2.40;;
12222;SDS011;6174;49.058;8.524;2022-08-04T11:44:18;2.40;;;2.20;;
12222;SDS011;6174;49.058;8.524;2022-08-04T11:46:53;3.22;;;2.22;;
12222;SDS011;6174;49.058;8.524;2022-08-04T11:49:25;2.35;;;2.08;;
12222;SDS011;6174;49.058;8.524;2022-08-04T11:51:57;3.97;;;2.10;;
12222;SDS011;6174;49.058;8.524;2022-08-04T11:54:26;2.50;;;2.30;;
12222;SDS011;6174;49.058;8.524;2022-08-04T11:56:53;2.10;;;1.88;;
12222;SDS011;6174;49.058;8.524;2022-08-04T11:59:21;2.50;;;2.20;;
12222;SDS011;6174;49.058;8.524;2022-08-04T12:01:57;2.78;;;2.10;;
12222;SDS011;6174;49.058;8.524;2022-08-04T12:04:46;2.85;;;2.00;;
12222;SDS011;6174;49.058;8.524;2022-08-04T12:07:22;1.98;;;1.88;;
12222;SDS011;6174;49.058;8.524;2022-08-04T12:10:08;1.83;;;1.73;;
12222;SDS011;6174;49.058;8.524;2022-08-04T12:12:45;1.60;;;1.50;;
12222;SDS011;6174;49.058;8.524;2022-08-04T12:15:22;2.33;;;1.70;;
12222;SDS011;6174;49.058;8.524;2022-08-04T12:17:56;2.45;;;1.50;;
12222;SDS011;6174;49.058;8.524;2022-08-04T12:20:29;3.17;;;1.70;;
12222;SDS011;6174;49.058;8.524;2022-08-04T12:23:01;2.78;;;1.58;;
12222;SDS011;6174;49.058;8.524;2022-08-04T12:25:30;3.22;;;1.75;;
12222;SDS011;6174;49.058;8.524;2022-08-04T12:28:04;2.25;;;1.70;;
12222;SDS011;6174;49.058;8.524;2022-08-04T12:30:33;2.70;;;1.73;;
12222;SDS011;6174;49.058;8.524;2022-08-04T12:33:04;2.28;;;1.92;;
12222;SDS011;6174;49.058;8.524;2022-08-04T12:35:37;3.45;;;1.88;;
12222;SDS011;6174;49.058;8.524;2022-08-04T12:38:10;1.77;;;1.67;;
12222;SDS011;6174;49.058;8.524;2022-08-04T12:40:39;2.10;;;1.90;;
12222;SDS011;6174;49.058;8.524;2022-08-04T12:43:10;1.95;;;1.75;;
12222;SDS011;6174;49.058;8.524;2022-08-04T12:45:43;2.20;;;1.80;;
12222;SDS011;6174;49.058;8.524;2022-08-04T12:48:15;2.08;;;1.70;;
12222;SDS011;6174;49.058;8.524;2022-08-04T12:50:45;4.43;;;1.80;;
12222;SDS011;6174;49.058;8.524;2022-08-04T12:53:13;2.65;;;2.03;;
12222;SDS011;6174;49.058;8.524;2022-08-04T12:55:43;2.03;;;1.67;;
12222;SDS011;6174;49.058;8.524;2022-08-04T12:58:14;2.50;;;1.70;;
12222;SDS011;6174;49.058;8.524;2022-08-04T13:00:43;1.80;;;1.70;;
12222;SDS011;6174;49.058;8.524;2022-08-04T13:03:20;1.88;;;1.77;;
12222;SDS011;6174;49.058;8.524;2022-08-04T13:05:52;1.80;;;1.70;;
12222;SDS011;6174;49.058;8.524;2022-08-04T13:08:21;2.45;;;1.95;;
12222;SDS011;6174;49.058;8.524;2022-08-04T13:10:49;2.15;;;1.90;;
12222;SDS011;6174;49.058;8.524;2022-08-04T13:13:23;3.75;;;2.00;;
12222;SDS011;6174;49.058;8.524;2022-08-04T13:15:55;2.08;;;1.85;;
12222;SDS011;6174;49.058;8.524;2022-08-04T13:18:26;2.50;;;1.90;;
12222;SDS011;6174;49.058;8.524;2022-08-04T13:20:55;1.95;;;1.85;;
12222;SDS011;6174;49.058;8.524;2022-08-04T13:23:32;2.00;;;1.90;;
12222;SDS011;6174;49.058;8.524;2022-08-04T13:25:59;1.90;;;1.80;;
12222;SDS011;6174;49.058;8.524;2022-08-04T13:28:30;3.25;;;1.70;;
12222;SDS011;6174;49.058;8.524;2022-08-04T13:30:59;2.38;;;1.60;;
12222;SDS011;6174;49.058;8.524;2022-08-04T13:33:33;2.50;;;1.75;;
12222;SDS011;6174;49.058;8.524;2022-08-04T13:36:01;1.98;;;1.88;;
12222;SDS011;6174;49.058;8.524;2022-08-04T13:38:30;1.80;;;1.70;;
12222;SDS011;6174;49.058;8.524;2022-08-04T13:40:59;1.83;;;1.73;;
12222;SDS011;6174;49.058;8.524;2022-08-04T13:43:28;2.58;;;1.70;;
12222;SDS011;6174;49.058;8.524;2022-08-04T13:45:58;4.00;;;1.70;;
12222;SDS011;6174;49.058;8.524;2022-08-04T13:48:31;2.50;;;1.67;;
12222;SDS011;6174;49.058;8.524;2022-08-04T13:51:00;2.08;;;1.80;;
12222;SDS011;6174;49.058;8.524;2022-08-04T13:53:29;1.90;;;1.80;;
12222;SDS011;6174;49.058;8.524;2022-08-04T13:58:29;3.50;;;1.90;;
12222;SDS011;6174;49.058;8.524;2022-08-04T14:00:58;3.38;;;1.88;;
12222;SDS011;6174;49.058;8.524;2022-08-04T14:03:28;1.70;;;1.58;;
12222;SDS011;6174;49.058;8.524;2022-08-04T14:08:54;1.85;;;1.75;;
12222;SDS011;6174;49.058;8.524;2022-08-04T14:11:30;2.28;;;1.90;;
12222;SDS011;6174;49.058;8.524;2022-08-04T14:14:00;1.95;;;1.75;;
12222;SDS011;6174;49.058;8.524;2022-08-04T14:16:37;1.80;;;1.70;;
12222;SDS011;6174;49.058;8.524;2022-08-04T14:19:20;2.30;;;1.80;;
12222;SDS011;6174;49.058;8.524;2022-08-04T14:21:49;1.85;;;1.75;;
12222;SDS011;6174;49.058;8.524;2022-08-04T14:24:21;1.52;;;1.42;;
12222;SDS011;6174;49.058;8.524;2022-08-04T14:26:49;2.72;;;1.73;;
12222;SDS011;6174;49.058;8.524;2022-08-04T14:29:16;1.67;;;1.58;;
12222;SDS011;6174;49.058;8.524;2022-08-04T14:31:46;1.60;;;1.50;;
12222;SDS011;6174;49.058;8.524;2022-08-04T14:34:23;1.58;;;1.40;;
12222;SDS011;6174;49.058;8.524;2022-08-04T14:36:52;1.45;;;1.35;;
12222;SDS011;6174;49.058;8.524;2022-08-04T14:42:01;1.77;;;1.40;;
12222;SDS011;6174;49.058;8.524;2022-08-04T14:44:29;2.17;;;1.55;;
12222;SDS011;6174;49.058;8.524;2022-08-04T14:46:56;1.52;;;1.42;;
12222;SDS011;6174;49.058;8.524;2022-08-04T14:49:24;1.40;;;1.40;;
12222;SDS011;6174;49.058;8.524;2022-08-04T14:51:54;1.65;;;1.30;;
12222;SDS011;6174;49.058;8.524;2022-08-04T14:54:25;1.50;;;1.40;;
12222;SDS011;6174;49.058;8.524;2022-08-04T14:56:54;2.90;;;1.40;;
12222;SDS011;6174;49.058;8.524;2022-08-04T14:59:23;3.30;;;1.50;;
12222;SDS011;6174;49.058;8.524;2022-08-04T15:01:50;1.55;;;1.30;;
12222;SDS011;6174;49.058;8.524;2022-08-04T15:04:18;1.80;;;1.42;;
12222;SDS011;6174;49.058;8.524;2022-08-04T15:06:48;1.77;;;1.42;;
12222;SDS011;6174;49.058;8.524;2022-08-04T15:09:18;1.60;;;1.40;;
12222;SDS011;6174;49.058;8.524;2022-08-04T15:11:46;1.25;;;1.25;;
12222;SDS011;6174;49.058;8.524;2022-08-04T15:14:13;1.63;;;1.50;;
12222;SDS011;6174;49.058;8.524;2022-08-04T15:16:40;1.25;;;1.10;;
12222;SDS011;6174;49.058;8.524;2022-08-04T15:19:08;1.60;;;1.50;;
12222;SDS011;6174;49.058;8.524;2022-08-04T15:21:35;1.25;;;1.25;;
12222;SDS011;6174;49.058;8.524;2022-08-04T15:24:02;1.70;;;1.60;;
12222;SDS011;6174;49.058;8.524;2022-08-04T15:26:32;1.38;;;1.35;;
12222;SDS011;6174;49.058;8.524;2022-08-04T15:29:05;1.92;;;1.65;;
12222;SDS011;6174;49.058;8.524;2022-08-04T15:31:37;2.30;;;2.20;;
12222;SDS011;6174;49.058;8.524;2022-08-04T15:34:07;2.30;;;2.20;;
12222;SDS011;6174;49.058;8.524;2022-08-04T15:36:41;2.28;;;2.17;;
12222;SDS011;6174;49.058;8.524;2022-08-04T15:39:17;3.33;;;2.30;;
12222;SDS011;6174;49.058;8.524;2022-08-04T15:41:55;2.60;;;2.40;;
12222;SDS011;6174;49.058;8.524;2022-08-04T15:44:44;2.25;;;2.00;;
12222;SDS011;6174;49.058;8.524;2022-08-04T15:47:27;2.88;;;2.28;;
12222;SDS011;6174;49.058;8.524;2022-08-04T15:50:01;1.92;;;1.83;;
12222;SDS011;6174;49.058;8.524;2022-08-04T15:55:33;2.05;;;1.85;;
12222;SDS011;6174;49.058;8.524;2022-08-04T15:58:03;2.08;;;1.95;;
12222;SDS011;6174;49.058;8.524;2022-08-04T16:03:39;2.22;;;2.00;;
12222;SDS011;6174;49.058;8.524;2022-08-04T16:09:19;1.70;;;1.60;;
12222;SDS011;6174;49.058;8.524;2022-08-04T16:11:47;2.13;;;2.00;;
12222;SDS011;6174;49.058;8.524;2022-08-04T16:14:15;1.63;;;1.50;;
12222;SDS011;6174;49.058;8.524;2022-08-04T16:16:46;1.67;;;1.58;;
12222;SDS011;6174;49.058;8.524;2022-08-04T16:19:18;1.30;;;1.30;;
12222;SDS011;6174;49.058;8.524;2022-08-04T16:21:51;1.17;;;1.08;;
12222;SDS011;6174;49.058;8.524;2022-08-04T16:24:20;1.20;;;1.10;;
12222;SDS011;6174;49.058;8.524;2022-08-04T16:26:54;1.20;;;1.10;;
12222;SDS011;6174;49.058;8.524;2022-08-04T16:29:32;1.20;;;0.90;;
12222;SDS011;6174;49.058;8.524;2022-08-04T16:32:11;1.10;;;1.00;;
12222;SDS011;6174;49.058;8.524;2022-08-04T16:34:40;1.30;;;1.20;;
12222;SDS011;6174;49.058;8.524;2022-08-04T16:37:09;1.20;;;1.10;;
12222;SDS011;6174;49.058;8.524;2022-08-04T16:39:36;1.25;;;1.25;;